createdAt,value
2023-02-08T00:02:39.605Z,10.80
2023-02-08T00:08:01.358Z,11.17
2023-02-08T00:13:23.386Z,10.77
2023-02-08T00:18:45.070Z,10.73
2023-02-08T00:24:06.945Z,10.77
2023-02-08T00:29:28.664Z,10.13
2023-02-08T00:34:50.454Z,9.67
2023-02-08T00:40:12.693Z,10.07
2023-02-08T00:45:34.380Z,10.47
2023-02-08T00:50:59.046Z,10.10
2023-02-08T00:56:20.730Z,10.13
2023-02-08T01:01:42.666Z,10.70
2023-02-08T01:07:05.370Z,10.47
2023-02-08T01:12:27.078Z,10.43
2023-02-08T01:17:54.125Z,10.07
2023-02-08T01:23:15.835Z,10.00
2023-02-08T01:28:38.172Z,10.77
2023-02-08T01:34:00.461Z,10.23
2023-02-08T01:39:22.168Z,9.50
2023-02-08T01:45:11.746Z,10.77
2023-02-08T01:50:42.019Z,10.37
2023-02-08T01:56:08.342Z,10.37
2023-02-08T02:01:31.845Z,10.13
2023-02-08T02:06:57.588Z,10.33
2023-02-08T02:12:21.107Z,10.27
2023-02-08T02:17:43.025Z,10.53
2023-02-08T02:23:23.141Z,10.27
2023-02-08T02:29:03.779Z,9.90
2023-02-08T02:34:34.534Z,9.90
2023-02-08T02:40:03.170Z,10.77
2023-02-08T02:45:32.498Z,10.47
2023-02-08T02:51:17.032Z,9.73
2023-02-08T02:56:46.031Z,9.47
2023-02-08T03:02:08.850Z,9.60
2023-02-08T03:07:56.351Z,9.73
2023-02-08T03:13:47.639Z,9.73
2023-02-08T03:19:27.545Z,10.23
2023-02-08T03:24:54.814Z,10.50
2023-02-08T03:30:34.157Z,10.30
2023-02-08T03:36:06.464Z,9.87
2023-02-08T03:41:38.794Z,10.10
2023-02-08T03:47:15.335Z,9.70
2023-02-08T03:52:37.652Z,9.83
2023-02-08T03:58:06.652Z,9.73
2023-02-08T04:03:30.619Z,10.63
2023-02-08T04:08:52.871Z,10.33
2023-02-08T04:14:14.641Z,9.77
2023-02-08T04:19:36.460Z,10.67
2023-02-08T04:24:58.183Z,10.73
2023-02-08T04:30:19.931Z,10.23
2023-02-08T04:35:42.439Z,9.90
2023-02-08T04:41:04.340Z,10.73
2023-02-08T04:46:26.167Z,11.30
2023-02-08T04:51:47.947Z,10.90
2023-02-08T04:57:14.035Z,10.43
2023-02-08T05:02:35.758Z,10.27
2023-02-08T05:07:57.476Z,11.00
2023-02-08T05:13:19.178Z,10.83
2023-02-08T05:18:42.151Z,11.23
2023-02-08T05:24:03.946Z,11.43
2023-02-08T05:29:25.859Z,12.10
2023-02-08T05:34:47.850Z,11.07
2023-02-08T05:40:10.424Z,10.70
2023-02-08T05:45:32.222Z,10.80
2023-02-08T05:50:54.336Z,11.85
2023-02-08T05:56:16.068Z,12.33
2023-02-08T06:01:37.793Z,11.50
2023-02-08T06:06:59.501Z,10.50
2023-02-08T06:12:21.188Z,10.77
2023-02-08T06:17:42.909Z,10.80
2023-02-08T06:23:04.730Z,11.30
2023-02-08T06:28:26.626Z,11.33
2023-02-08T06:33:48.369Z,11.00
2023-02-08T06:39:10.104Z,11.23
2023-02-08T06:44:31.822Z,11.50
2023-02-08T06:49:54.044Z,11.80
2023-02-08T06:55:15.796Z,11.33
2023-02-08T07:00:39.182Z,12.27
2023-02-08T07:06:05.727Z,11.53
2023-02-08T07:11:27.667Z,12.90
2023-02-08T07:16:49.415Z,15.03
2023-02-08T07:22:11.195Z,12.73
2023-02-08T07:27:33.340Z,11.60
2023-02-08T07:32:55.235Z,11.30
2023-02-08T07:38:20.624Z,11.60
2023-02-08T07:43:43.210Z,12.20
2023-02-08T07:49:04.992Z,11.63
2023-02-08T07:54:27.229Z,11.90
2023-02-08T07:59:48.991Z,12.17
2023-02-08T08:05:11.380Z,12.23
2023-02-08T08:10:33.124Z,12.23
2023-02-08T08:15:54.895Z,12.70
2023-02-08T08:21:16.797Z,12.53
2023-02-08T08:26:38.590Z,13.77
2023-02-08T08:32:00.384Z,12.53
2023-02-08T08:37:22.131Z,14.17
2023-02-08T08:42:43.917Z,12.23
2023-02-08T08:48:05.984Z,12.40
2023-02-08T08:53:27.875Z,12.70
2023-02-08T08:58:49.683Z,13.00
2023-02-08T09:04:11.890Z,13.50
2023-02-08T09:09:33.918Z,12.53
2023-02-08T09:14:55.623Z,13.57
2023-02-08T09:20:17.946Z,13.80
2023-02-08T09:25:40.113Z,14.17
2023-02-08T09:31:37.673Z,13.43
2023-02-08T09:36:59.458Z,13.37
2023-02-08T09:42:31.650Z,12.93
2023-02-08T09:48:14.488Z,13.57
2023-02-08T09:53:44.044Z,13.40
2023-02-08T09:59:12.860Z,13.87
2023-02-08T10:04:43.410Z,13.10
2023-02-08T10:10:15.358Z,13.47
2023-02-08T10:16:13.143Z,13.73
2023-02-08T10:21:55.814Z,13.57
2023-02-08T10:27:28.911Z,12.57
2023-02-08T10:32:59.453Z,13.30
2023-02-08T10:38:21.128Z,12.90
2023-02-08T10:43:51.729Z,12.30
2023-02-08T10:49:35.023Z,11.93
2023-02-08T10:54:58.560Z,13.20
2023-02-08T11:00:26.999Z,12.87
2023-02-08T11:05:49.627Z,12.57
2023-02-08T11:11:11.576Z,11.47
2023-02-08T11:16:34.076Z,11.87
2023-02-08T11:21:57.070Z,11.17
2023-02-08T11:27:29.495Z,10.47
2023-02-08T11:33:19.730Z,10.33
2023-02-08T11:38:42.636Z,9.60
2023-02-08T11:44:07.132Z,10.63
2023-02-08T11:49:40.665Z,10.13
2023-02-08T11:55:38.075Z,9.93
2023-02-08T12:01:18.658Z,9.47
2023-02-08T12:06:54.373Z,8.77
2023-02-08T12:12:42.680Z,8.23
2023-02-08T12:18:16.732Z,8.33
2023-02-08T12:23:49.227Z,9.03
2023-02-08T12:29:45.679Z,7.87
2023-02-08T12:35:57.599Z,8.20
2023-02-08T12:41:23.210Z,7.50
2023-02-08T12:47:06.805Z,7.43
2023-02-08T12:52:37.684Z,7.90
2023-02-08T12:58:25.619Z,7.57
2023-02-08T13:03:57.245Z,7.93
2023-02-08T13:09:35.707Z,7.27
2023-02-08T13:15:30.954Z,6.80
2023-02-08T13:21:05.420Z,6.50
2023-02-08T13:26:33.266Z,6.00
2023-02-08T13:32:30.697Z,5.97
2023-02-08T13:37:59.890Z,5.80
2023-02-08T13:43:35.612Z,6.50
2023-02-08T13:49:00.348Z,6.87
2023-02-08T13:54:23.710Z,7.33
2023-02-08T14:00:21.480Z,6.10
2023-02-08T14:05:57.196Z,6.90
2023-02-08T14:11:37.218Z,6.17
2023-02-08T14:17:04.733Z,6.33
2023-02-08T14:22:33.756Z,6.93
2023-02-08T14:28:02.545Z,6.73
2023-02-08T14:33:32.027Z,6.50
2023-02-08T14:39:23.622Z,6.87
2023-02-08T14:44:48.883Z,7.03
2023-02-08T14:50:20.447Z,6.40
2023-02-08T14:55:52.067Z,7.80
2023-02-08T15:01:18.649Z,8.87
2023-02-08T15:07:07.534Z,7.73
2023-02-08T15:12:32.954Z,8.00
2023-02-08T15:17:55.610Z,8.33
2023-02-08T15:23:23.570Z,8.40
2023-02-08T15:28:45.546Z,8.03
2023-02-08T15:34:11.405Z,8.23
2023-02-08T15:39:41.458Z,8.47
2023-02-08T15:45:04.453Z,7.83
2023-02-08T15:50:27.699Z,8.57
2023-02-08T15:55:53.727Z,8.57
2023-02-08T16:01:20.808Z,8.60
2023-02-08T16:06:53.247Z,9.13
2023-02-08T16:12:21.675Z,11.37
2023-02-08T16:17:45.707Z,11.80
2023-02-08T16:23:31.225Z,12.63
2023-02-08T16:29:19.000Z,12.57
2023-02-08T16:34:41.118Z,13.80
2023-02-08T16:40:06.608Z,12.70
2023-02-08T16:45:28.392Z,12.37
2023-02-08T16:50:50.122Z,13.00
2023-02-08T16:56:11.897Z,13.33
2023-02-08T17:01:34.001Z,14.53
2023-02-08T17:06:55.832Z,17.07
2023-02-08T17:12:22.836Z,14.50
2023-02-08T17:17:44.835Z,14.87
2023-02-08T17:23:07.020Z,15.40
2023-02-08T17:28:28.838Z,14.13
2023-02-08T17:33:50.602Z,16.20
2023-02-08T17:39:13.686Z,16.70
2023-02-08T17:44:35.428Z,15.97
2023-02-08T17:49:57.498Z,15.53
2023-02-08T17:55:19.613Z,16.27
2023-02-08T18:00:41.364Z,16.20
2023-02-08T18:06:05.940Z,15.90
2023-02-08T18:11:27.776Z,16.17
2023-02-08T18:16:49.533Z,16.63
2023-02-08T18:22:11.271Z,15.97
2023-02-08T18:27:33.286Z,16.77
2023-02-08T18:32:55.023Z,17.10
2023-02-08T18:38:16.789Z,17.03
2023-02-08T18:43:39.213Z,17.47
2023-02-08T18:49:00.967Z,17.13
2023-02-08T18:54:23.029Z,17.20
2023-02-08T18:59:44.749Z,16.10
2023-02-08T19:05:06.793Z,19.93
2023-02-08T19:10:28.515Z,17.10
2023-02-08T19:15:51.319Z,18.33
2023-02-08T19:21:15.113Z,17.93
2023-02-08T19:26:39.877Z,16.37
2023-02-08T19:32:01.716Z,17.00
2023-02-08T19:37:23.583Z,16.90
2023-02-08T19:42:45.973Z,17.53
2023-02-08T19:48:08.597Z,16.67
2023-02-08T19:53:30.624Z,17.03
2023-02-08T19:58:52.465Z,16.80
2023-02-08T20:04:14.567Z,16.90
2023-02-08T20:09:37.113Z,16.63
2023-02-08T20:14:58.929Z,18.37
2023-02-08T20:20:21.345Z,18.40
2023-02-08T20:25:43.371Z,16.57
2023-02-08T20:31:15.472Z,17.20
2023-02-08T20:36:40.525Z,18.53
2023-02-08T20:42:02.553Z,19.80
2023-02-08T20:47:24.487Z,18.77
2023-02-08T20:52:46.762Z,19.10
2023-02-08T20:58:08.597Z,17.07
2023-02-08T21:03:30.298Z,17.70
2023-02-08T21:08:52.603Z,18.47
2023-02-08T21:14:20.673Z,17.03
2023-02-08T21:19:42.631Z,17.27
2023-02-08T21:25:04.407Z,16.57
2023-02-08T21:30:26.200Z,17.90
2023-02-08T21:35:48.043Z,17.57
2023-02-08T21:41:21.696Z,17.53
2023-02-08T21:46:43.412Z,17.70
2023-02-08T21:52:23.745Z,19.87
2023-02-08T21:57:45.592Z,17.67
2023-02-08T22:03:07.454Z,16.23
2023-02-08T22:08:29.176Z,15.90
2023-02-08T22:13:50.863Z,16.60
2023-02-08T22:19:12.581Z,16.37
2023-02-08T22:24:35.408Z,16.30
2023-02-08T22:29:57.526Z,15.93
2023-02-08T22:35:19.367Z,16.63
2023-02-08T22:40:42.391Z,16.37
2023-02-08T22:46:04.535Z,16.50
2023-02-08T22:51:26.313Z,16.63
2023-02-08T22:56:48.023Z,17.03
2023-02-08T23:02:09.771Z,16.73
2023-02-08T23:07:31.593Z,17.00
2023-02-08T23:12:53.303Z,16.57
2023-02-08T23:18:15.009Z,16.70
2023-02-08T23:23:36.831Z,15.73
2023-02-08T23:28:58.678Z,15.73
2023-02-08T23:34:20.431Z,16.47
2023-02-08T23:39:42.146Z,14.57
2023-02-08T23:45:04.490Z,14.97
2023-02-08T23:50:26.421Z,14.73
2023-02-08T23:55:48.121Z,16.37
